Time;durP1;ratioP1;P1;durP2;ratioP2;P2;SDS_P1;SDS_P2;PMS_P1;PMS_P2;Temp;Humidity;BMP_temperature;BMP_pressure;BME280_temperature;BME280_humidity;BME280_pressure;Samples;Min_cycle;Max_cycle;Signal;HPM_P1;HPM_P2
2021/06/06 00:01:53;;;;;;;7.67;6.10;;;16.50;99.90;;;;;;5033036;28;20212;-67
2021/06/06 00:04:21;;;;;;;10.00;6.13;;;16.50;99.90;;;;;;5040223;28;20435;-66
2021/06/06 00:06:47;;;;;;;13.20;6.70;;;16.50;99.90;;;;;;5039277;28;20416;-69
2021/06/06 00:09:16;;;;;;;9.33;6.57;;;16.40;99.90;;;;;;5032853;28;20424;-67
2021/06/06 00:11:45;;;;;;;9.07;6.30;;;16.40;99.90;;;;;;5033283;28;20690;-70
2021/06/06 00:14:15;;;;;;;11.70;6.97;;;16.40;99.90;;;;;;5031391;28;20471;-67
2021/06/06 00:16:47;;;;;;;10.53;7.33;;;16.40;99.90;;;;;;5044228;28;20416;-67
2021/06/06 00:19:14;;;;;;;11.50;6.33;;;16.40;99.90;;;;;;5053541;28;20412;-67
2021/06/06 00:21:41;;;;;;;9.70;6.03;;;16.40;99.90;;;;;;5052942;28;20497;-66
2021/06/06 00:24:10;;;;;;;12.53;6.60;;;16.40;99.90;;;;;;5052356;28;20427;-67
2021/06/06 00:26:36;;;;;;;12.33;7.20;;;16.40;99.90;;;;;;5044669;28;20496;-68
2021/06/06 00:29:03;;;;;;;10.43;6.70;;;16.40;99.90;;;;;;5036740;28;20491;-68
2021/06/06 00:31:29;;;;;;;8.70;6.10;;;16.40;99.90;;;;;;5036809;28;20178;-66
2021/06/06 00:33:55;;;;;;;10.63;6.27;;;16.40;99.90;;;;;;5036046;28;20415;-66
2021/06/06 00:36:22;;;;;;;8.80;6.43;;;16.40;99.90;;;;;;5056473;28;20407;-66
2021/06/06 00:38:49;;;;;;;11.10;7.30;;;16.40;99.90;;;;;;5056455;28;20267;-67
2021/06/06 00:41:17;;;;;;;9.30;6.07;;;16.40;99.90;;;;;;5056267;28;20871;-66
2021/06/06 00:43:43;;;;;;;9.93;6.30;;;16.30;99.90;;;;;;5055968;28;20860;-66
2021/06/06 00:46:09;;;;;;;9.77;6.33;;;16.30;99.90;;;;;;5038799;28;20826;-69
2021/06/06 00:48:35;;;;;;;11.53;6.70;;;16.30;99.90;;;;;;5036272;28;20399;-66
2021/06/06 00:51:21;;;;;;;8.70;6.10;;;16.30;99.90;;;;;;5036329;28;20409;-66
2021/06/06 00:53:54;;;;;;;8.10;6.73;;;16.30;99.90;;;;;;5035894;28;20482;-66
2021/06/06 00:56:24;;;;;;;7.77;6.07;;;16.30;99.90;;;;;;5043688;28;20419;-67
2021/06/06 00:58:51;;;;;;;8.20;5.40;;;16.40;99.90;;;;;;5055777;28;20521;-67
2021/06/06 01:01:18;;;;;;;8.27;5.37;;;16.40;99.90;;;;;;5056060;28;20482;-67
2021/06/06 01:03:48;;;;;;;10.80;7.27;;;16.30;99.90;;;;;;5055413;28;20402;-68
2021/06/06 01:06:37;;;;;;;8.77;5.50;;;16.30;99.90;;;;;;5036269;28;20471;-68
2021/06/06 01:09:05;;;;;;;7.40;5.30;;;16.40;99.90;;;;;;5035887;28;20409;-67
2021/06/06 01:11:45;;;;;;;8.03;5.47;;;16.40;99.90;;;;;;5044034;28;20420;-66
2021/06/06 01:14:18;;;;;;;9.67;5.87;;;16.40;99.90;;;;;;5035442;28;20451;-67
2021/06/06 01:16:58;;;;;;;8.47;5.60;;;16.30;99.90;;;;;;5035919;28;20409;-68
2021/06/06 01:19:33;;;;;;;8.20;5.50;;;16.30;99.90;;;;;;5035699;28;20807;-67
2021/06/06 01:22:23;;;;;;;9.53;5.80;;;16.40;99.90;;;;;;5043512;28;20464;-68
2021/06/06 01:25:01;;;;;;;6.33;4.50;;;16.30;99.90;;;;;;5055090;28;20423;-66
2021/06/06 01:27:30;;;;;;;8.67;5.57;;;16.40;99.90;;;;;;5055455;28;20422;-68
2021/06/06 01:29:59;;;;;;;7.80;5.77;;;16.40;99.90;;;;;;5055451;28;20415;-67
2021/06/06 01:33:00;;;;;;;10.17;6.63;;;16.40;99.90;;;;;;5043430;28;20427;-67
2021/06/06 01:35:47;;;;;;;5.90;4.80;;;16.40;99.90;;;;;;5034506;28;20435;-67
2021/06/06 01:38:23;;;;;;;7.47;5.20;;;16.40;99.90;;;;;;5034426;28;20486;-67
2021/06/06 01:40:56;;;;;;;7.90;5.57;;;16.40;99.90;;;;;;5035062;28;20930;-68
2021/06/06 01:43:30;;;;;;;7.20;5.13;;;16.30;99.90;;;;;;5053736;28;20419;-66
2021/06/06 01:46:05;;;;;;;5.10;4.53;;;16.40;99.90;;;;;;5053281;28;20417;-67
2021/06/06 01:48:34;;;;;;;8.13;4.60;;;16.30;99.90;;;;;;5055175;28;20414;-66
2021/06/06 01:51:22;;;;;;;8.07;5.67;;;16.30;99.90;;;;;;5055082;28;20833;-67
2021/06/06 01:53:50;;;;;;;5.73;4.23;;;16.30;99.90;;;;;;5033218;28;20503;-67
2021/06/06 01:56:24;;;;;;;6.87;4.77;;;16.30;99.90;;;;;;5034924;28;20434;-67
2021/06/06 01:58:54;;;;;;;7.30;5.00;;;16.30;99.90;;;;;;5034969;28;20817;-66
2021/06/06 02:01:23;;;;;;;7.10;4.87;;;16.30;99.90;;;;;;5035299;28;20456;-67
2021/06/06 02:03:51;;;;;;;5.30;4.13;;;16.30;99.90;;;;;;5053105;28;20400;-67
2021/06/06 02:06:20;;;;;;;6.00;4.57;;;16.30;99.90;;;;;;5054623;28;20900;-68
2021/06/06 02:08:47;;;;;;;6.50;5.33;;;16.30;99.90;;;;;;5054652;28;20415;-68
2021/06/06 02:11:28;;;;;;;6.83;4.47;;;16.30;99.90;;;;;;5054034;28;20400;-68
2021/06/06 02:14:01;;;;;;;6.80;4.33;;;16.30;99.90;;;;;;5034085;28;20454;-67
2021/06/06 02:16:32;;;;;;;5.27;3.93;;;16.30;99.90;;;;;;5034496;28;20795;-68
2021/06/06 02:18:58;;;;;;;6.97;4.67;;;16.30;99.90;;;;;;5034588;28;20455;-67
2021/06/06 02:21:25;;;;;;;5.00;4.03;;;16.30;99.90;;;;;;5036127;28;20908;-68
2021/06/06 02:23:51;;;;;;;6.67;4.40;;;16.30;99.90;;;;;;5053964;28;20279;-68
2021/06/06 02:26:50;;;;;;;5.57;4.80;;;16.20;99.90;;;;;;5054381;28;20408;-68
2021/06/06 02:29:40;;;;;;;4.87;3.90;;;16.20;99.90;;;;;;5053564;28;20181;-68
2021/06/06 02:32:27;;;;;;;7.87;4.77;;;16.20;99.90;;;;;;5053602;28;20415;-68
2021/06/06 02:35:20;;;;;;;6.63;4.43;;;16.20;99.90;;;;;;5053592;28;20431;-68
2021/06/06 02:37:51;;;;;;;9.93;5.10;;;16.20;99.90;;;;;;5054041;28;20408;-68
2021/06/06 02:40:29;;;;;;;7.63;4.33;;;16.10;99.90;;;;;;5052553;28;20497;-68
2021/06/06 02:42:59;;;;;;;4.73;3.77;;;16.10;99.90;;;;;;5032479;28;20507;-68
2021/06/06 02:45:27;;;;;;;8.00;5.27;;;16.10;99.90;;;;;;5034130;28;20511;-68
2021/06/06 02:48:03;;;;;;;5.60;4.13;;;16.10;99.90;;;;;;5034219;28;20538;-68
2021/06/06 02:50:34;;;;;;;5.00;4.43;;;16.00;99.90;;;;;;5034670;28;20411;-67
2021/06/06 02:53:11;;;;;;;12.53;5.10;;;15.90;99.90;;;;;;5053903;28;20933;-68
2021/06/06 02:55:42;;;;;;;5.87;4.00;;;16.00;99.90;;;;;;5053662;28;20468;-67
2021/06/06 02:58:18;;;;;;;7.77;4.57;;;15.90;99.90;;;;;;5053676;28;20848;-67
2021/06/06 03:00:50;;;;;;;6.90;3.90;;;15.90;99.90;;;;;;5037273;28;20459;-67
2021/06/06 03:03:28;;;;;;;8.23;5.53;;;15.90;99.90;;;;;;5033534;28;20422;-67
2021/06/06 03:05:57;;;;;;;5.67;4.47;;;15.80;99.90;;;;;;5033754;28;20538;-67
2021/06/06 03:08:23;;;;;;;8.70;4.97;;;15.70;99.90;;;;;;5033858;28;20470;-67
2021/06/06 03:10:51;;;;;;;6.63;4.40;;;15.70;99.90;;;;;;5050294;28;20445;-66
2021/06/06 03:13:27;;;;;;;5.97;4.60;;;15.70;99.90;;;;;;5053326;28;20414;-67
2021/06/06 03:15:56;;;;;;;6.93;4.97;;;15.70;99.90;;;;;;5053522;28;20935;-66
2021/06/06 03:18:25;;;;;;;8.00;5.63;;;15.60;99.90;;;;;;5043509;28;20426;-67
2021/06/06 03:20:55;;;;;;;8.00;5.50;;;15.60;99.90;;;;;;5033431;28;20856;-66
2021/06/06 03:23:25;;;;;;;9.27;5.17;;;15.60;99.90;;;;;;5033119;28;20438;-67
2021/06/06 03:25:55;;;;;;;10.17;5.40;;;15.50;99.90;;;;;;5033452;28;20416;-66
2021/06/06 03:28:29;;;;;;;7.27;5.40;;;15.50;99.90;;;;;;5041269;28;20458;-67
2021/06/06 03:30:58;;;;;;;11.30;4.70;;;15.50;99.90;;;;;;5053267;28;20445;-66
2021/06/06 03:33:50;;;;;;;9.70;4.40;;;15.50;99.90;;;;;;5052849;28;20411;-67
2021/06/06 03:36:22;;;;;;;8.00;5.07;;;15.50;99.90;;;;;;5053445;28;20410;-67
2021/06/06 03:38:48;;;;;;;7.83;5.37;;;15.40;99.90;;;;;;5039146;28;20442;-66
2021/06/06 03:41:13;;;;;;;8.80;4.97;;;15.40;99.90;;;;;;5033015;28;20486;-67
2021/06/06 03:43:39;;;;;;;8.07;5.40;;;15.40;99.90;;;;;;5033119;28;20412;-67
2021/06/06 03:46:07;;;;;;;11.30;5.00;;;15.40;99.90;;;;;;5033118;28;20539;-66
2021/06/06 03:48:32;;;;;;;7.13;4.50;;;15.40;99.90;;;;;;5043273;28;20893;-67
2021/06/06 03:50:58;;;;;;;8.07;5.07;;;15.40;99.90;;;;;;5046244;28;20506;-66
2021/06/06 03:53:25;;;;;;;8.83;4.83;;;15.40;99.90;;;;;;5032812;28;20263;-67
2021/06/06 03:55:51;;;;;;;9.77;4.57;;;15.40;99.90;;;;;;5033169;28;20200;-67
2021/06/06 03:58:18;;;;;;;10.80;5.33;;;15.40;99.90;;;;;;5040973;28;20461;-66
2021/06/06 04:00:48;;;;;;;7.10;3.80;;;15.40;99.90;;;;;;5053732;28;20287;-65
2021/06/06 04:03:15;;;;;;;6.70;4.57;;;15.40;99.90;;;;;;5056670;28;20406;-65
2021/06/06 04:05:42;;;;;;;7.90;4.77;;;15.40;99.90;;;;;;5052646;28;20458;-65
2021/06/06 04:08:09;;;;;;;13.17;4.87;;;15.40;99.90;;;;;;5037115;28;20408;-66
2021/06/06 04:10:35;;;;;;;6.30;3.87;;;15.30;99.90;;;;;;5037006;28;20857;-66
2021/06/06 04:13:01;;;;;;;5.47;4.10;;;15.30;99.90;;;;;;5036432;28;20465;-66
2021/06/06 04:15:27;;;;;;;7.43;4.50;;;15.30;99.90;;;;;;5037010;28;20442;-66
2021/06/06 04:17:53;;;;;;;3.90;3.20;;;15.30;99.90;;;;;;5056901;28;20171;-66
2021/06/06 04:20:22;;;;;;;8.80;4.40;;;15.20;99.90;;;;;;5056766;28;20458;-65
2021/06/06 04:22:48;;;;;;;6.40;3.80;;;15.20;99.90;;;;;;5056519;28;20908;-66
2021/06/06 04:25:16;;;;;;;5.33;3.50;;;15.20;99.90;;;;;;5056337;28;20531;-66
2021/06/06 04:27:42;;;;;;;6.40;3.60;;;15.20;99.90;;;;;;5037331;28;20260;-65
2021/06/06 04:30:10;;;;;;;5.50;3.37;;;15.20;99.90;;;;;;5035235;28;20918;-66
2021/06/06 04:32:36;;;;;;;5.50;3.80;;;15.20;99.90;;;;;;5036488;28;20430;-66
2021/06/06 04:35:03;;;;;;;5.60;3.37;;;15.20;99.90;;;;;;5036243;28;20423;-66
2021/06/06 04:37:29;;;;;;;4.70;3.73;;;15.20;99.90;;;;;;5052257;28;20758;-66
2021/06/06 04:39:55;;;;;;;4.97;2.90;;;15.20;99.90;;;;;;5056430;28;20468;-65
2021/06/06 04:42:21;;;;;;;5.07;3.33;;;15.20;99.90;;;;;;5056300;28;20234;-66
2021/06/06 04:44:48;;;;;;;3.37;2.93;;;15.20;99.90;;;;;;5055937;28;20193;-66
2021/06/06 04:47:13;;;;;;;5.37;3.07;;;15.20;99.90;;;;;;5038968;28;20426;-65
2021/06/06 04:49:41;;;;;;;2.87;2.13;;;15.20;99.90;;;;;;5036178;28;20428;-66
2021/06/06 04:52:09;;;;;;;3.50;2.53;;;15.20;99.90;;;;;;5036295;28;20702;-66
2021/06/06 04:54:35;;;;;;;4.73;2.83;;;15.10;99.90;;;;;;5035773;28;20430;-67
2021/06/06 04:57:01;;;;;;;4.73;3.33;;;15.20;99.90;;;;;;5049924;28;20437;-66
2021/06/06 04:59:27;;;;;;;4.13;2.67;;;15.20;99.90;;;;;;5055998;28;20191;-66
2021/06/06 05:01:52;;;;;;;3.20;2.33;;;15.20;99.90;;;;;;5054332;28;21016;-65
2021/06/06 05:04:18;;;;;;;2.80;2.47;;;15.20;99.90;;;;;;5054227;28;20553;-67
2021/06/06 05:06:44;;;;;;;4.80;3.17;;;15.20;99.90;;;;;;5055969;28;20628;-67
2021/06/06 05:09:10;;;;;;;5.10;3.50;;;15.20;99.90;;;;;;5050789;28;20477;-65
2021/06/06 05:11:36;;;;;;;4.20;2.50;;;15.20;99.90;;;;;;5035452;28;20272;-67
2021/06/06 05:14:03;;;;;;;4.43;2.40;;;15.20;99.90;;;;;;5034456;28;20175;-67
2021/06/06 05:16:29;;;;;;;3.10;2.40;;;15.20;99.90;;;;;;5035841;28;20811;-67
2021/06/06 05:18:56;;;;;;;3.93;2.37;;;15.20;99.90;;;;;;5037864;28;20466;-67
2021/06/06 05:21:22;;;;;;;5.43;3.00;;;15.30;99.90;;;;;;5055571;28;20196;-67
2021/06/06 05:23:48;;;;;;;3.37;2.70;;;15.30;99.90;;;;;;5055167;28;20434;-66
2021/06/06 05:26:14;;;;;;;3.40;2.87;;;15.20;99.90;;;;;;5055601;28;20419;-66
2021/06/06 05:28:40;;;;;;;6.17;3.40;;;15.20;99.90;;;;;;5042261;28;20207;-66
2021/06/06 05:31:07;;;;;;;6.00;3.47;;;15.30;99.90;;;;;;5035354;28;20415;-66
2021/06/06 05:33:33;;;;;;;3.73;2.60;;;15.30;99.90;;;;;;5035148;28;20586;-67
2021/06/06 05:36:01;;;;;;;4.83;3.47;;;15.30;99.90;;;;;;5035142;28;20444;-67
2021/06/06 05:38:29;;;;;;;4.83;3.10;;;15.40;99.90;;;;;;5045746;28;20437;-67
2021/06/06 05:40:55;;;;;;;4.27;2.57;;;15.40;99.90;;;;;;5055275;28;20978;-66
2021/06/06 05:43:21;;;;;;;3.63;3.10;;;15.30;99.90;;;;;;5054979;28;20811;-66
2021/06/06 05:45:47;;;;;;;4.47;3.50;;;15.30;99.90;;;;;;5052994;28;20430;-66
2021/06/06 05:48:14;;;;;;;3.77;3.33;;;15.40;99.90;;;;;;5035270;28;20427;-67
2021/06/06 05:50:42;;;;;;;7.47;3.77;;;15.40;99.90;;;;;;5034716;28;20490;-66
2021/06/06 05:53:08;;;;;;;6.70;4.40;;;15.40;99.90;;;;;;5034725;28;20499;-67
2021/06/06 05:55:35;;;;;;;6.63;4.90;;;15.40;99.90;;;;;;5042173;28;20778;-66
2021/06/06 05:58:01;;;;;;;8.77;4.63;;;15.40;99.90;;;;;;5054593;28;20430;-67
2021/06/06 06:00:31;;;;;;;5.90;3.23;;;15.50;99.90;;;;;;5054752;28;20458;-66
2021/06/06 06:02:57;;;;;;;7.40;4.83;;;15.40;99.90;;;;;;5054371;28;20399;-66
2021/06/06 06:05:23;;;;;;;6.43;4.57;;;15.40;99.90;;;;;;5035298;28;20845;-66
2021/06/06 06:07:50;;;;;;;6.60;5.00;;;15.40;99.90;;;;;;5034853;28;20411;-67
2021/06/06 06:10:28;;;;;;;7.70;4.40;;;15.40;99.90;;;;;;5034841;28;20566;-66
2021/06/06 06:12:55;;;;;;;7.53;4.43;;;15.40;99.90;;;;;;5034513;28;20430;-66
2021/06/06 06:15:22;;;;;;;9.27;5.00;;;15.40;99.90;;;;;;5052809;28;20937;-67
2021/06/06 06:17:48;;;;;;;7.20;4.20;;;15.40;99.90;;;;;;5054620;28;20398;-67
2021/06/06 06:20:17;;;;;;;6.53;4.60;;;15.40;99.90;;;;;;5054505;28;20419;-66
2021/06/06 06:22:44;;;;;;;6.20;4.53;;;15.40;99.90;;;;;;5044065;28;20431;-66
2021/06/06 06:25:12;;;;;;;4.90;3.60;;;15.40;99.90;;;;;;5033640;28;20435;-66
2021/06/06 06:27:37;;;;;;;7.37;4.70;;;15.50;99.90;;;;;;5034473;28;20446;-66
2021/06/06 06:30:10;;;;;;;8.73;4.50;;;15.50;99.90;;;;;;5034419;28;20408;-66
2021/06/06 06:32:36;;;;;;;8.00;5.10;;;15.40;99.90;;;;;;5042552;28;20201;-67
2021/06/06 06:35:02;;;;;;;8.30;4.90;;;15.40;99.90;;;;;;5053467;28;20462;-68
2021/06/06 06:37:28;;;;;;;7.93;4.93;;;15.40;99.90;;;;;;5052645;28;20626;-69
2021/06/06 06:39:54;;;;;;;8.40;5.03;;;15.40;99.90;;;;;;5053319;28;20434;-68
2021/06/06 06:42:19;;;;;;;7.10;3.87;;;15.30;99.90;;;;;;5047607;28;20200;-66
2021/06/06 06:44:45;;;;;;;6.40;4.33;;;15.40;99.90;;;;;;5032034;28;20259;-66
2021/06/06 06:47:12;;;;;;;5.73;4.20;;;15.40;99.90;;;;;;5036553;28;20207;-66
2021/06/06 06:49:37;;;;;;;7.17;4.17;;;15.40;99.90;;;;;;5034165;28;20623;-67
2021/06/06 06:52:04;;;;;;;8.03;4.37;;;15.40;99.90;;;;;;5034058;28;20557;-66
2021/06/06 06:54:30;;;;;;;6.77;4.20;;;15.40;99.90;;;;;;5033524;28;20192;-65
2021/06/06 06:56:56;;;;;;;5.37;4.13;;;15.50;99.90;;;;;;5033454;28;20445;-67
2021/06/06 06:59:27;;;;;;;6.63;4.00;;;15.40;99.90;;;;;;5033564;28;20416;-67
2021/06/06 07:01:54;;;;;;;8.23;4.73;;;15.50;99.90;;;;;;5035406;28;20204;-67
2021/06/06 07:04:20;;;;;;;8.53;4.00;;;15.50;99.90;;;;;;5040480;28;20802;-68
2021/06/06 07:06:52;;;;;;;7.10;4.47;;;15.60;99.90;;;;;;5032954;28;20414;-68
2021/06/06 07:09:18;;;;;;;9.20;5.60;;;15.60;99.90;;;;;;5033536;28;20744;-68
2021/06/06 07:11:43;;;;;;;6.50;4.13;;;15.60;99.90;;;;;;5033498;28;20488;-68
2021/06/06 07:14:09;;;;;;;7.20;4.33;;;15.60;99.90;;;;;;5034104;28;20466;-70
2021/06/06 07:16:36;;;;;;;5.87;4.67;;;15.70;99.90;;;;;;5050969;28;20180;-72
2021/06/06 07:19:03;;;;;;;5.23;4.20;;;15.70;99.90;;;;;;5053046;28;20173;-71
2021/06/06 07:21:28;;;;;;;7.67;5.07;;;15.70;99.90;;;;;;5052355;28;20470;-70
2021/06/06 07:23:55;;;;;;;7.40;5.43;;;15.70;99.90;;;;;;5052976;28;20823;-72
2021/06/06 07:26:26;;;;;;;7.80;4.53;;;15.70;99.90;;;;;;5053440;28;20182;-72
2021/06/06 07:28:54;;;;;;;7.50;4.77;;;15.70;99.90;;;;;;5050122;28;20415;-71
2021/06/06 07:31:20;;;;;;;7.20;4.93;;;15.80;99.90;;;;;;5042829;28;20426;-70
2021/06/06 07:33:46;;;;;;;8.70;5.60;;;15.80;99.90;;;;;;5046617;28;20983;-71
2021/06/06 07:36:18;;;;;;;6.97;4.50;;;15.90;99.90;;;;;;5033723;28;20182;-72
2021/06/06 07:38:44;;;;;;;9.50;6.30;;;15.90;99.90;;;;;;5034357;28;20437;-73
2021/06/06 07:41:11;;;;;;;7.03;4.67;;;15.90;99.90;;;;;;5053081;28;20511;-71
2021/06/06 07:43:37;;;;;;;6.70;5.40;;;15.90;99.90;;;;;;5052841;28;20414;-73
2021/06/06 07:46:03;;;;;;;7.50;3.80;;;15.90;99.90;;;;;;5053239;28;20431;-72
2021/06/06 07:48:29;;;;;;;8.00;4.83;;;15.90;99.90;;;;;;5047758;28;20548;-71
2021/06/06 07:50:55;;;;;;;9.10;5.73;;;16.00;99.90;;;;;;5052166;28;20416;-73
2021/06/06 07:53:22;;;;;;;9.80;5.47;;;16.00;99.90;;;;;;5039633;28;20184;-72
2021/06/06 07:55:50;;;;;;;7.07;5.03;;;16.00;99.90;;;;;;5052874;28;20433;-70
2021/06/06 07:58:27;;;;;;;11.23;6.40;;;16.00;99.90;;;;;;5052775;28;20449;-71
2021/06/06 08:00:53;;;;;;;8.67;5.63;;;16.00;99.90;;;;;;5052375;28;20485;-71
2021/06/06 08:03:19;;;;;;;9.53;6.50;;;16.00;99.90;;;;;;5051394;28;20444;-71
2021/06/06 08:05:48;;;;;;;9.03;6.17;;;16.00;99.90;;;;;;5049047;28;20452;-72
2021/06/06 08:08:14;;;;;;;16.80;10.80;;;15.90;99.90;;;;;;5047159;28;20481;-70
2021/06/06 08:10:44;;;;;;;8.60;5.03;;;15.90;99.90;;;;;;5052436;28;20423;-68
2021/06/06 08:13:09;;;;;;;12.50;5.80;;;15.90;99.90;;;;;;5052397;28;20489;-71
2021/06/06 08:15:36;;;;;;;10.30;6.33;;;16.00;99.90;;;;;;5050045;28;20483;-71
2021/06/06 08:18:06;;;;;;;14.60;6.00;;;16.00;99.90;;;;;;5033085;28;20407;-73
2021/06/06 08:20:38;;;;;;;12.80;7.57;;;16.00;99.90;;;;;;5033023;28;20565;-66
2021/06/06 08:23:07;;;;;;;8.60;5.37;;;15.90;99.90;;;;;;5031199;28;20469;-70
2021/06/06 08:25:33;;;;;;;11.10;7.30;;;16.00;99.90;;;;;;5035066;28;20451;-67
2021/06/06 08:27:59;;;;;;;15.57;5.80;;;16.00;99.90;;;;;;5031681;28;20440;-71
2021/06/06 08:30:33;;;;;;;15.00;6.60;;;16.10;99.90;;;;;;5032858;28;20836;-68
2021/06/06 08:32:58;;;;;;;10.20;6.13;;;16.10;99.90;;;;;;5041967;28;20192;-73
2021/06/06 08:35:24;;;;;;;8.37;5.07;;;16.10;99.90;;;;;;5050490;28;20797;-70
2021/06/06 08:37:50;;;;;;;11.57;6.30;;;16.10;99.90;;;;;;5032590;28;20652;-73
2021/06/06 08:40:33;;;;;;;9.47;5.07;;;16.20;99.90;;;;;;5036329;28;20418;-73
2021/06/06 08:43:01;;;;;;;6.47;5.07;;;16.20;99.90;;;;;;5052273;28;20208;-74
2021/06/06 08:45:32;;;;;;;10.63;7.00;;;16.20;99.90;;;;;;5041760;28;20448;-75
2021/06/06 08:48:01;;;;;;;13.43;7.57;;;16.20;99.90;;;;;;5054889;28;20407;-71
2021/06/06 08:50:49;;;;;;;9.00;6.13;;;16.30;99.90;;;;;;5049175;28;20458;-71
2021/06/06 08:53:25;;;;;;;7.97;5.60;;;16.30;99.90;;;;;;5055699;28;20419;-71
2021/06/06 08:56:18;;;;;;;8.97;5.37;;;16.40;99.90;;;;;;5054537;28;20431;-70
2021/06/06 08:58:56;;;;;;;8.17;5.53;;;16.40;99.90;;;;;;5054786;28;20443;-70
2021/06/06 09:01:30;;;;;;;8.40;6.30;;;16.40;99.90;;;;;;5054288;28;20465;-70
2021/06/06 09:03:57;;;;;;;9.07;5.83;;;16.40;99.90;;;;;;5053363;28;20427;-71
2021/06/06 09:06:40;;;;;;;12.17;6.47;;;16.40;99.90;;;;;;5044166;28;20432;-70
2021/06/06 09:09:11;;;;;;;9.67;6.37;;;16.40;99.90;;;;;;5034697;28;20923;-71
2021/06/06 09:11:37;;;;;;;9.57;5.60;;;16.30;99.90;;;;;;5035580;28;20416;-71
2021/06/06 09:14:03;;;;;;;11.73;6.60;;;16.40;99.90;;;;;;5034971;28;20408;-72
2021/06/06 09:16:53;;;;;;;12.90;7.17;;;16.40;99.90;;;;;;5048481;28;20426;-73
2021/06/06 09:19:21;;;;;;;15.60;7.20;;;16.50;99.90;;;;;;5054407;28;20427;-71
2021/06/06 09:21:53;;;;;;;10.77;6.97;;;16.60;99.90;;;;;;5055034;28;20456;-73
2021/06/06 09:24:33;;;;;;;8.00;5.37;;;16.70;99.90;;;;;;5054207;28;20865;-71
2021/06/06 09:27:17;;;;;;;11.17;7.00;;;16.80;99.90;;;;;;5055346;28;20407;-64
2021/06/06 09:29:43;;;;;;;12.90;6.73;;;16.80;99.90;;;;;;5055236;28;20407;-64
2021/06/06 09:32:19;;;;;;;12.83;6.30;;;16.80;99.90;;;;;;5055357;28;20457;-63
2021/06/06 09:35:20;;;;;;;9.40;5.53;;;17.00;99.90;;;;;;5046952;28;20440;-64
2021/06/06 09:37:51;;;;;;;8.77;6.33;;;17.10;99.90;;;;;;5035499;28;20764;-66
2021/06/06 09:40:38;;;;;;;7.43;4.43;;;17.20;99.90;;;;;;5054013;28;20419;-64
2021/06/06 09:43:04;;;;;;;11.67;6.00;;;17.20;99.90;;;;;;5054750;28;20405;-67
2021/06/06 09:45:35;;;;;;;8.63;5.70;;;17.20;99.90;;;;;;5040974;28;20441;-65
2021/06/06 09:48:16;;;;;;;11.07;6.10;;;17.20;99.90;;;;;;5035093;28;20409;-74
2021/06/06 09:50:47;;;;;;;13.13;6.83;;;17.30;99.90;;;;;;5035185;28;20495;-73
2021/06/06 09:53:32;;;;;;;11.17;6.57;;;17.30;99.90;;;;;;5034617;28;20417;-72
2021/06/06 09:56:07;;;;;;;14.20;7.30;;;17.30;99.90;;;;;;5051798;28;21056;-74
2021/06/06 09:58:38;;;;;;;14.93;7.23;;;17.30;99.90;;;;;;5053707;28;20427;-71
2021/06/06 10:01:29;;;;;;;14.10;7.87;;;17.30;99.90;;;;;;5054615;28;20482;-72
2021/06/06 10:04:04;;;;;;;19.93;8.73;;;17.20;99.90;;;;;;5040833;28;20578;-77
2021/06/06 10:06:35;;;;;;;15.57;7.40;;;17.20;99.90;;;;;;5034883;28;20414;-76
2021/06/06 10:09:26;;;;;;;14.73;7.20;;;17.20;99.90;;;;;;5034630;28;20398;-73
2021/06/06 10:12:10;;;;;;;19.73;8.63;;;17.20;99.90;;;;;;5034155;28;20899;-73
2021/06/06 10:14:43;;;;;;;16.50;9.50;;;17.10;99.90;;;;;;5051893;28;20448;-72
2021/06/06 10:17:16;;;;;;;18.73;9.73;;;17.10;99.90;;;;;;5053364;28;20416;-72
2021/06/06 10:19:54;;;;;;;16.97;10.00;;;17.00;99.90;;;;;;5054397;28;20408;-73
2021/06/06 10:22:29;;;;;;;17.87;10.40;;;17.00;99.90;;;;;;5054300;28;20814;-72
2021/06/06 10:25:06;;;;;;;21.53;10.60;;;17.00;99.90;;;;;;5044962;28;20439;-73
2021/06/06 10:27:42;;;;;;;22.43;11.97;;;17.10;99.90;;;;;;5053532;28;20778;-73
2021/06/06 10:30:13;;;;;;;18.07;9.60;;;17.20;99.90;;;;;;5054112;28;20446;-73
2021/06/06 10:32:45;;;;;;;19.37;10.23;;;17.20;99.90;;;;;;5053363;28;20411;-73
2021/06/06 10:35:24;;;;;;;22.90;11.80;;;17.30;99.90;;;;;;5053791;28;20428;-77
2021/06/06 10:37:53;;;;;;;19.13;9.90;;;17.40;99.90;;;;;;5054024;28;20762;-73
2021/06/06 10:40:24;;;;;;;19.80;10.50;;;17.30;99.90;;;;;;5053982;28;20436;-76
2021/06/06 10:43:05;;;;;;;20.47;11.00;;;17.30;99.90;;;;;;5052548;28;20416;-74
2021/06/06 10:45:38;;;;;;;16.80;9.40;;;17.40;99.90;;;;;;5053727;28;20438;-72
2021/06/06 10:48:20;;;;;;;19.70;10.13;;;17.50;99.90;;;;;;5053845;28;20976;-76
2021/06/06 10:50:49;;;;;;;16.63;11.03;;;17.50;99.90;;;;;;5053774;28;20763;-75
2021/06/06 10:53:20;;;;;;;16.40;9.53;;;17.50;99.90;;;;;;5034380;28;20495;-74
2021/06/06 10:56:02;;;;;;;19.93;10.60;;;17.50;99.90;;;;;;5033881;28;20429;-74
2021/06/06 10:58:38;;;;;;;18.10;10.37;;;17.50;99.90;;;;;;5033769;28;20486;-74
2021/06/06 11:01:07;;;;;;;21.50;11.10;;;17.50;99.90;;;;;;5034134;28;20539;-75
2021/06/06 11:03:36;;;;;;;18.53;11.20;;;17.40;99.90;;;;;;5033334;28;20410;-75
2021/06/06 11:06:19;;;;;;;21.23;12.67;;;17.30;99.90;;;;;;5033981;28;20428;-73
2021/06/06 11:08:45;;;;;;;24.83;10.77;;;17.30;99.90;;;;;;5033916;28;20401;-73
2021/06/06 11:11:14;;;;;;;21.70;12.13;;;17.40;99.90;;;;;;5047629;28;20831;-71
2021/06/06 11:13:41;;;;;;;30.70;12.10;;;17.50;99.90;;;;;;5053116;28;20416;-67
2021/06/06 11:16:16;;;;;;;21.63;11.43;;;17.50;99.90;;;;;;5053433;28;20433;-67
2021/06/06 11:19:01;;;;;;;24.77;12.43;;;17.60;99.90;;;;;;5052155;28;20416;-64
2021/06/06 11:21:45;;;;;;;24.40;12.63;;;17.70;99.90;;;;;;5036425;28;20461;-65
2021/06/06 11:24:23;;;;;;;26.47;12.70;;;17.70;99.90;;;;;;5032925;28;20417;-65
2021/06/06 11:27:00;;;;;;;24.77;13.57;;;17.70;99.90;;;;;;5032864;28;20402;-67
2021/06/06 11:29:39;;;;;;;29.40;12.97;;;17.80;99.90;;;;;;5033812;28;20444;-70
2021/06/06 11:32:11;;;;;;;28.03;11.40;;;17.70;99.90;;;;;;5033398;28;20424;-67
2021/06/06 11:34:40;;;;;;;27.00;13.13;;;17.60;99.90;;;;;;5033126;28;20476;-68
2021/06/06 11:37:16;;;;;;;27.90;14.20;;;17.60;99.90;;;;;;5032763;28;20413;-67
2021/06/06 11:39:47;;;;;;;27.50;14.50;;;17.60;99.90;;;;;;5047739;28;20756;-68
2021/06/06 11:42:38;;;;;;;26.70;12.77;;;17.70;99.90;;;;;;5053204;28;20469;-69
2021/06/06 11:45:17;;;;;;;28.33;14.30;;;17.80;99.90;;;;;;5052192;28;21034;-68
2021/06/06 11:48:00;;;;;;;28.90;13.70;;;17.80;99.90;;;;;;5053370;28;20418;-67
2021/06/06 11:50:50;;;;;;;28.93;13.40;;;17.90;99.90;;;;;;5044972;28;20781;-68
2021/06/06 11:53:28;;;;;;;23.63;11.67;;;18.00;99.90;;;;;;5052238;28;20437;-67
2021/06/06 11:56:06;;;;;;;29.13;13.53;;;18.10;99.90;;;;;;5053253;28;20839;-68
2021/06/06 11:58:40;;;;;;;27.30;14.10;;;18.10;99.90;;;;;;5048133;28;20854;-68
2021/06/06 12:01:15;;;;;;;26.47;12.97;;;18.20;99.90;;;;;;5033111;28;20466;-69
2021/06/06 12:03:44;;;;;;;28.07;13.13;;;18.30;99.90;;;;;;5032778;28;20406;-67
2021/06/06 12:06:26;;;;;;;29.00;12.53;;;18.30;99.90;;;;;;5033161;28;20433;-72
2021/06/06 12:08:56;;;;;;;23.60;11.97;;;18.30;99.90;;;;;;5032290;28;20805;-69
2021/06/06 12:11:30;;;;;;;25.60;12.70;;;18.30;99.90;;;;;;5042613;28;20445;-71
2021/06/06 12:14:07;;;;;;;22.80;10.87;;;18.40;99.90;;;;;;5052528;28;20444;-69
2021/06/06 12:16:33;;;;;;;25.00;11.40;;;18.40;99.90;;;;;;5053057;28;20760;-68
2021/06/06 12:19:09;;;;;;;21.17;12.13;;;18.30;99.90;;;;;;5052836;28;20402;-69
2021/06/06 12:21:39;;;;;;;24.97;11.50;;;18.30;99.90;;;;;;5042081;28;20297;-67
2021/06/06 12:24:22;;;;;;;24.37;12.17;;;18.30;99.90;;;;;;5036272;28;20422;-69
2021/06/06 12:27:08;;;;;;;24.10;11.23;;;18.30;99.90;;;;;;5036912;28;20422;-69
2021/06/06 12:29:50;;;;;;;23.27;12.27;;;18.30;99.90;;;;;;5053718;28;20912;-66
2021/06/06 12:32:27;;;;;;;23.57;11.80;;;18.30;99.90;;;;;;5058411;28;20531;-66
2021/06/06 12:34:53;;;;;;;24.23;11.20;;;18.40;99.90;;;;;;5069483;28;20433;-68
2021/06/06 12:37:25;;;;;;;21.67;10.93;;;18.40;99.90;;;;;;5076621;28;20416;-68
2021/06/06 12:39:53;;;;;;;22.53;11.37;;;18.40;99.90;;;;;;5058489;28;20429;-68
2021/06/06 12:42:21;;;;;;;22.47;11.33;;;18.40;99.90;;;;;;5036417;28;20580;-67
2021/06/06 12:44:50;;;;;;;22.67;10.40;;;18.40;99.90;;;;;;5035830;28;20428;-66
2021/06/06 12:47:34;;;;;;;23.03;11.87;;;18.50;99.90;;;;;;5036224;28;20460;-66
2021/06/06 12:50:00;;;;;;;23.50;10.63;;;18.50;99.90;;;;;;5045877;28;20428;-70
2021/06/06 12:52:40;;;;;;;23.03;12.60;;;18.50;99.90;;;;;;5038019;28;20430;-74
2021/06/06 12:55:31;;;;;;;22.33;11.70;;;18.60;99.90;;;;;;5054657;28;20446;-75
2021/06/06 12:58:01;;;;;;;25.63;11.80;;;18.50;99.90;;;;;;5054631;28;20442;-67
2021/06/06 13:00:32;;;;;;;26.67;12.83;;;18.50;99.90;;;;;;5053000;28;20409;-70
2021/06/06 13:02:58;;;;;;;25.30;11.40;;;18.50;99.90;;;;;;5035757;28;20385;-67